Nearby METAR Reports

 

KMTN - Baltimore/Martin, Maryland, USA
Distance from station: SSE 8mi, 13km
Updated: Wed, 01-Oct-2014 10:15pm EDT
Clear
Clear
 Wind from NE
Wind: NE 3 mph , 6 km/h
Temperature: 63°F , 17°C
Dew Point: 63°F , 17°C
Humidity: 100%
Barometer: 30.08 inHg , 1018.6 hPa
Clouds: Clear
Visibility: 10 miles , 16 km
2014/10/02 02:15 KMTN 020215Z AUTO 05003KT 10SM CLR 17/17 A3008 RMK AO2
KDMH - Baltimore/Dwntwn, Maryland, USA
Distance from station: SW 12mi, 19km
Updated: Wed, 01-Oct-2014 9:54pm EDT

 
Temperature: 68°F , 20°C
Dew Point: 57°F , 14°C
Humidity: 69%
Barometer: 30.06 inHg , 1017.9 hPa
2014/10/02 01:54 KDMH 020154Z AUTO 20/14 A3006 RMK AO1 SLP180 T02000144
 
KBWI - Balto/Wash Intl, Maryland, USA
Distance from station: SSW 20mi, 33km
Updated: Wed, 01-Oct-2014 9:54pm EDT
Few Clouds
Few Clouds
 Wind from calm
Wind: Calm
Temperature: 63°F , 17°C
Dew Point: 57°F , 14°C
Humidity: 83%
Barometer: 30.06 inHg , 1017.9 hPa
Clouds: Few Clouds
Visibility: 10 miles , 16 km
Cloud details: Few Clouds 3700 ft
2014/10/02 01:54 KBWI 020154Z 00000KT 10SM FEW037 17/14 A3006 RMK AO2 SLP177 T01720144
KDMW - Carroll Cnty, Maryland, USA
Distance from station: WNW 30mi, 48km
Updated: Wed, 01-Oct-2014 10:15pm EDT
Mist, Partly cloudy
Mist, Partly cloudy
 Wind from calm
Wind: Calm
Temperature: 59°F , 15°C
Dew Point: 55°F , 13°C
Humidity: 88%
Barometer: 30.08 inHg , 1018.6 hPa
Summary: Mist
Clouds: Partly cloudy
Visibility: 4 miles , 6 km
Cloud details: Partly cloudy 9000 ft
2014/10/02 02:15 KDMW 020215Z AUTO 00000KT 4SM BR SCT090 15/13 A3008 RMK AO2
 
KNAK - Annapolis/Naval, Maryland, USA
Distance from station: S 30mi, 48km
Updated: Wed, 01-Oct-2014 9:54pm EDT
Mist, Clear
Mist, Clear
 Wind from calm
Wind: Calm
Temperature: 64°F , 18°C
Dew Point: 63°F , 17°C
Humidity: 94%
Barometer: 30.05 inHg , 1017.6 hPa
Summary: Mist
Clouds: Clear
Visibility: 6 miles , 10 km
2014/10/02 01:54 KNAK 020154Z AUTO 00000KT 6SM BR CLR 18/17 A3005 RMK AO2 SLP178 T01830167
KW29 - Stevensville, Maryland, USA
Distance from station: SSE 31mi, 50km
Updated: Wed, 01-Oct-2014 10:14pm EDT

 Wind from E
Wind: E 5 mph , 7 km/h
Temperature: 64°F , 18°C
Dew Point: 61°F , 16°C
Humidity: 88%
Barometer: 30.06 inHg , 1017.9 hPa
Visibility: 10 miles , 16 km
2014/10/02 02:14 KW29 020214Z AUTO 08004KT 10SM 18/16 A3006 RMK AO1
 
KCGS - College Park, Maryland, USA
Distance from station: SW 38mi, 61km
Updated: Wed, 01-Oct-2014 10:10pm EDT
Clear
Clear
 Wind from calm
Wind: Calm
Temperature: 61°F , 16°C
Dew Point: 61°F , 16°C
Humidity: 100%
Barometer: 30.06 inHg , 1017.9 hPa
Clouds: Clear
Visibility: 7 miles , 11 km
2014/10/02 02:10 KCGS 020210Z AUTO 00000KT 7SM CLR 16/16 A3006 RMK AO1
KGAI - Gaithersburg, Maryland, USA
Distance from station: WSW 40mi, 65km
Updated: Wed, 01-Oct-2014 10:15pm EDT
Clear
Clear
 Wind from calm
Wind: Calm
Temperature: 59°F , 15°C
Dew Point: 57°F , 14°C
Humidity: 94%
Barometer: 30.11 inHg , 1019.6 hPa
Clouds: Clear
Visibility: 6 miles , 10 km
2014/10/02 02:15 KGAI 020215Z 00000KT 6SM CLR 15/14 A3011 RMK AO1
 
KTHV - York, Pennsylvania, USA
Distance from station: NNW 40mi, 65km
Updated: Wed, 01-Oct-2014 10:07pm EDT
Mist, Clear
Mist, Clear
 Wind from calm
Wind: Calm
Temperature: 54°F , 12°C
Dew Point: 52°F , 11°C
Humidity: 94%
Barometer: 30.08 inHg , 1018.6 hPa
Summary: Mist
Clouds: Clear
Visibility: 2 miles , 3 km
2014/10/02 02:07 KTHV 020207Z AUTO 00000KT 2SM BR CLR 12/11 A3008 RMK AO2 T01170111
KFDK - Frederick, Maryland, USA
Distance from station: W 47mi, 75km
Updated: Wed, 01-Oct-2014 10:10pm EDT
Mist, Partly cloudy
Mist, Partly cloudy
 Wind from calm
Wind: Calm
Temperature: 57°F , 14°C
Dew Point: 55°F , 13°C
Humidity: 94%
Barometer: 30.10 inHg , 1019.3 hPa
Summary: Mist
Clouds: Partly cloudy
Visibility: 1 1/2 miles , 2 km
Cloud details: Partly cloudy 400 ft
2014/10/02 02:10 KFDK 020210Z AUTO 00000KT 1 1/2SM BR SCT004 14/13 A3010 RMK AO2
 
KESN - Easton/Newnam, Maryland, USA
Distance from station: SSE 48mi, 78km
Updated: Wed, 01-Oct-2014 8:55pm EDT
NOT Current
Partly cloudy
Partly cloudy
 Wind from calm
Wind: Calm
Temperature: 64°F , 18°C
Dew Point: 64°F , 18°C
Humidity: 100%
Barometer: 30.08 inHg , 1018.6 hPa
Clouds: Partly cloudy
Visibility: 10 miles , 16 km
Cloud details: Partly cloudy 4000 ft
2014/10/02 00:55 KESN 020055Z 00000KT 10SM SCT040 18/18 A3008
KDCA - Washington/Natl, Washington D.c., USA
Distance from station: SW 49mi, 79km
Updated: Wed, 01-Oct-2014 9:52pm EDT
Few Clouds
Few Clouds
 Wind from calm
Wind: Calm
Temperature: 70°F , 21°C
Dew Point: 61°F , 16°C
Humidity: 73%
Barometer: 30.07 inHg , 1018.3 hPa
Clouds: Few Clouds
Visibility: 10 miles , 16 km
Cloud details: Few Clouds 3400 ft
2014/10/02 01:52 KDCA 020152Z 00000KT 10SM FEW034 21/16 A3007 RMK AO2 SLP181 T02060156
 
KLNS - Lancaster, Pennsylvania, USA
Distance from station: N 49mi, 79km
Updated: Wed, 01-Oct-2014 9:53pm EDT
Light rain, Overcast
Light rain, Overcast
 Wind from NNE
Wind: NNE 5 mph , 7 km/h
Temperature: 63°F , 17°C
Dew Point: 59°F , 15°C
Humidity: 88%
Barometer: 30.08 inHg , 1018.6 hPa
Summary: Light rain
Clouds: Overcast
Visibility: 8 miles , 13 km
Cloud details: Partly cloudy 3900 ft
Overcast 6500 ft
2014/10/02 01:53 KLNS 020153Z AUTO 03004KT 8SM -RA SCT039 OVC065 17/15 A3008 RMK AO2 SLP185 P0006 T01720150
KILG - Wilmington, Delaware, USA
Distance from station: ENE 50mi, 81km
Updated: Wed, 01-Oct-2014 9:51pm EDT
Partly cloudy
Partly cloudy
 Wind from ENE
Wind: ENE 3 mph , 6 km/h
Temperature: 64°F , 18°C
Dew Point: 57°F , 14°C
Humidity: 78%
Barometer: 30.08 inHg , 1018.6 hPa
Clouds: Partly cloudy
Visibility: 10 miles , 16 km
Cloud details: Partly cloudy 2400 ft
2014/10/02 01:51 KILG 020151Z 07003KT 10SM SCT024 18/14 A3008 RMK AO2 SLP184 T01780144